Terminal Aerodrome Forecast
Issued by NWS Billings, MT

Home | Current Version | Previous Version | Text Only | Print | Product List | Glossary On
Versions: 1 2 3 4 5 6 7 8 9 10 11 12 13 14 15 16 17 18 19 20 21 22 23 24 25 26 27 28
009
FTUS45 KBYZ 081132
TAFSHR
TAF
KSHR 081132Z 0812/0912 25005KT P6SM OVC070 WS014/32033KT
     FM081500 29007KT P6SM BKN070 WS009/31035KT
     FM081700 32017G30KT P6SM SCT070 BKN250
     FM090200 28008KT P6SM SCT250 WS005/30030KT
     FM090600 29006KT P6SM SCT250
      AMD NOT SKED=

USA.gov is the U.S. government's official web portal to all federal, state and local government web resources and services.